sensor_id;sensor_type;location;lat;lon;timestamp;P1;durP1;ratioP1;P2;durP2;ratioP2
53899;SDS011;40509;32.858;-116.858;2023-04-03T00:01:11;11.30;;;2.97;;
53899;SDS011;40509;32.858;-116.858;2023-04-03T00:03:39;7.63;;;2.78;;
53899;SDS011;40509;32.858;-116.858;2023-04-03T00:06:07;8.07;;;3.40;;
53899;SDS011;40509;32.858;-116.858;2023-04-03T00:08:37;10.75;;;2.42;;
53899;SDS011;40509;32.858;-116.858;2023-04-03T00:11:06;9.45;;;3.08;;
53899;SDS011;40509;32.858;-116.858;2023-04-03T00:13:34;12.55;;;3.08;;
53899;SDS011;40509;32.858;-116.858;2023-04-03T00:16:02;10.90;;;2.70;;
53899;SDS011;40509;32.858;-116.858;2023-04-03T00:18:30;10.13;;;3.10;;
53899;SDS011;40509;32.858;-116.858;2023-04-03T00:20:57;10.95;;;4.20;;
53899;SDS011;40509;32.858;-116.858;2023-04-03T00:23:24;13.73;;;3.03;;
53899;SDS011;40509;32.858;-116.858;2023-04-03T00:25:52;6.30;;;2.97;;
53899;SDS011;40509;32.858;-116.858;2023-04-03T00:28:19;6.60;;;3.15;;
53899;SDS011;40509;32.858;-116.858;2023-04-03T00:30:51;7.43;;;2.92;;
53899;SDS011;40509;32.858;-116.858;2023-04-03T00:33:18;13.98;;;2.80;;
53899;SDS011;40509;32.858;-116.858;2023-04-03T00:35:48;7.20;;;3.35;;
53899;SDS011;40509;32.858;-116.858;2023-04-03T00:38:16;8.18;;;3.17;;
53899;SDS011;40509;32.858;-116.858;2023-04-03T00:40:45;5.78;;;2.75;;
53899;SDS011;40509;32.858;-116.858;2023-04-03T00:43:15;7.55;;;3.70;;
53899;SDS011;40509;32.858;-116.858;2023-04-03T00:45:49;4.57;;;2.80;;
53899;SDS011;40509;32.858;-116.858;2023-04-03T00:48:22;9.63;;;3.25;;
53899;SDS011;40509;32.858;-116.858;2023-04-03T00:51:22;12.07;;;2.78;;
53899;SDS011;40509;32.858;-116.858;2023-04-03T00:53:53;9.20;;;2.85;;
53899;SDS011;40509;32.858;-116.858;2023-04-03T00:56:25;7.00;;;2.15;;
53899;SDS011;40509;32.858;-116.858;2023-04-03T00:59:01;3.72;;;2.10;;
53899;SDS011;40509;32.858;-116.858;2023-04-03T01:01:53;5.45;;;2.40;;
53899;SDS011;40509;32.858;-116.858;2023-04-03T01:04:28;7.85;;;2.65;;
53899;SDS011;40509;32.858;-116.858;2023-04-03T01:07:02;21.10;;;3.30;;
53899;SDS011;40509;32.858;-116.858;2023-04-03T01:09:33;14.55;;;3.25;;
53899;SDS011;40509;32.858;-116.858;2023-04-03T01:12:18;11.05;;;3.25;;
53899;SDS011;40509;32.858;-116.858;2023-04-03T01:14:55;11.63;;;2.92;;
53899;SDS011;40509;32.858;-116.858;2023-04-03T01:17:37;15.68;;;2.92;;
53899;SDS011;40509;32.858;-116.858;2023-04-03T01:22:52;9.50;;;3.00;;
53899;SDS011;40509;32.858;-116.858;2023-04-03T01:25:26;16.67;;;3.63;;
53899;SDS011;40509;32.858;-116.858;2023-04-03T01:27:54;10.23;;;3.08;;
53899;SDS011;40509;32.858;-116.858;2023-04-03T01:30:22;12.88;;;4.43;;
53899;SDS011;40509;32.858;-116.858;2023-04-03T01:32:55;8.13;;;2.85;;
53899;SDS011;40509;32.858;-116.858;2023-04-03T01:35:22;8.15;;;3.28;;
53899;SDS011;40509;32.858;-116.858;2023-04-03T01:37:50;11.60;;;4.75;;
53899;SDS011;40509;32.858;-116.858;2023-04-03T01:40:17;10.95;;;3.63;;
53899;SDS011;40509;32.858;-116.858;2023-04-03T01:42:46;10.32;;;2.50;;
53899;SDS011;40509;32.858;-116.858;2023-04-03T01:45:13;13.50;;;3.08;;
53899;SDS011;40509;32.858;-116.858;2023-04-03T01:47:40;4.18;;;2.47;;
53899;SDS011;40509;32.858;-116.858;2023-04-03T01:50:08;19.38;;;4.05;;
53899;SDS011;40509;32.858;-116.858;2023-04-03T01:52:37;11.60;;;4.15;;
53899;SDS011;40509;32.858;-116.858;2023-04-03T01:55:04;9.90;;;5.10;;
53899;SDS011;40509;32.858;-116.858;2023-04-03T01:57:32;9.05;;;2.95;;
53899;SDS011;40509;32.858;-116.858;2023-04-03T01:59:59;6.07;;;2.92;;
53899;SDS011;40509;32.858;-116.858;2023-04-03T02:02:27;24.50;;;4.32;;
53899;SDS011;40509;32.858;-116.858;2023-04-03T02:04:54;14.55;;;4.20;;
53899;SDS011;40509;32.858;-116.858;2023-04-03T02:07:21;18.92;;;3.78;;
53899;SDS011;40509;32.858;-116.858;2023-04-03T02:09:48;7.72;;;2.80;;
53899;SDS011;40509;32.858;-116.858;2023-04-03T02:12:15;7.05;;;2.13;;
53899;SDS011;40509;32.858;-116.858;2023-04-03T02:14:43;4.68;;;2.78;;
53899;SDS011;40509;32.858;-116.858;2023-04-03T02:17:12;13.80;;;3.35;;
53899;SDS011;40509;32.858;-116.858;2023-04-03T02:19:39;16.73;;;4.28;;
53899;SDS011;40509;32.858;-116.858;2023-04-03T02:22:06;10.50;;;3.15;;
53899;SDS011;40509;32.858;-116.858;2023-04-03T02:24:33;7.22;;;4.07;;
53899;SDS011;40509;32.858;-116.858;2023-04-03T02:27:01;18.48;;;4.13;;
53899;SDS011;40509;32.858;-116.858;2023-04-03T02:29:28;8.93;;;3.88;;
53899;SDS011;40509;32.858;-116.858;2023-04-03T02:31:55;8.65;;;3.88;;
53899;SDS011;40509;32.858;-116.858;2023-04-03T02:34:24;3.78;;;2.08;;
53899;SDS011;40509;32.858;-116.858;2023-04-03T02:36:52;9.10;;;4.13;;
53899;SDS011;40509;32.858;-116.858;2023-04-03T02:39:19;12.23;;;2.45;;
53899;SDS011;40509;32.858;-116.858;2023-04-03T02:41:47;9.82;;;3.03;;
53899;SDS011;40509;32.858;-116.858;2023-04-03T02:44:20;20.08;;;3.22;;
53899;SDS011;40509;32.858;-116.858;2023-04-03T02:46:49;17.42;;;3.05;;
53899;SDS011;40509;32.858;-116.858;2023-04-03T02:49:17;5.50;;;2.95;;
53899;SDS011;40509;32.858;-116.858;2023-04-03T02:51:44;13.27;;;3.33;;
53899;SDS011;40509;32.858;-116.858;2023-04-03T02:54:12;11.70;;;2.25;;
53899;SDS011;40509;32.858;-116.858;2023-04-03T02:56:45;10.90;;;3.42;;
53899;SDS011;40509;32.858;-116.858;2023-04-03T02:59:13;14.65;;;3.65;;
53899;SDS011;40509;32.858;-116.858;2023-04-03T03:01:41;9.07;;;2.55;;
53899;SDS011;40509;32.858;-116.858;2023-04-03T03:04:08;7.53;;;2.47;;
53899;SDS011;40509;32.858;-116.858;2023-04-03T03:06:35;4.65;;;2.17;;
53899;SDS011;40509;32.858;-116.858;2023-04-03T03:09:03;9.93;;;3.08;;
53899;SDS011;40509;32.858;-116.858;2023-04-03T03:11:32;8.65;;;2.15;;
53899;SDS011;40509;32.858;-116.858;2023-04-03T03:13:59;16.20;;;2.45;;
53899;SDS011;40509;32.858;-116.858;2023-04-03T03:16:26;11.27;;;2.92;;
53899;SDS011;40509;32.858;-116.858;2023-04-03T03:18:53;6.30;;;3.97;;
53899;SDS011;40509;32.858;-116.858;2023-04-03T03:21:21;12.13;;;2.83;;
53899;SDS011;40509;32.858;-116.858;2023-04-03T03:23:48;8.75;;;3.35;;
53899;SDS011;40509;32.858;-116.858;2023-04-03T03:26:15;16.90;;;3.65;;
53899;SDS011;40509;32.858;-116.858;2023-04-03T03:28:42;2.80;;;2.00;;
53899;SDS011;40509;32.858;-116.858;2023-04-03T03:31:11;15.88;;;2.85;;
53899;SDS011;40509;32.858;-116.858;2023-04-03T03:33:39;4.28;;;1.90;;
53899;SDS011;40509;32.858;-116.858;2023-04-03T03:36:07;15.30;;;2.90;;
53899;SDS011;40509;32.858;-116.858;2023-04-03T03:38:36;7.68;;;2.72;;
53899;SDS011;40509;32.858;-116.858;2023-04-03T03:41:03;13.30;;;2.83;;
53899;SDS011;40509;32.858;-116.858;2023-04-03T03:43:33;16.58;;;2.47;;
53899;SDS011;40509;32.858;-116.858;2023-04-03T03:46:01;5.82;;;1.95;;
53899;SDS011;40509;32.858;-116.858;2023-04-03T03:48:29;10.38;;;2.83;;
53899;SDS011;40509;32.858;-116.858;2023-04-03T03:50:56;3.38;;;2.25;;
53899;SDS011;40509;32.858;-116.858;2023-04-03T03:53:27;4.55;;;2.80;;
53899;SDS011;40509;32.858;-116.858;2023-04-03T03:55:58;3.78;;;1.77;;
53899;SDS011;40509;32.858;-116.858;2023-04-03T03:58:28;12.00;;;2.78;;
53899;SDS011;40509;32.858;-116.858;2023-04-03T04:00:56;4.53;;;1.90;;
53899;SDS011;40509;32.858;-116.858;2023-04-03T04:03:23;5.63;;;2.03;;
53899;SDS011;40509;32.858;-116.858;2023-04-03T04:05:51;11.35;;;2.70;;
53899;SDS011;40509;32.858;-116.858;2023-04-03T04:08:18;9.40;;;2.88;;
53899;SDS011;40509;32.858;-116.858;2023-04-03T04:10:46;2.55;;;1.80;;
53899;SDS011;40509;32.858;-116.858;2023-04-03T04:13:15;7.10;;;2.58;;
53899;SDS011;40509;32.858;-116.858;2023-04-03T04:15:43;1.88;;;1.73;;
53899;SDS011;40509;32.858;-116.858;2023-04-03T04:18:11;3.55;;;1.35;;
53899;SDS011;40509;32.858;-116.858;2023-04-03T04:20:41;4.18;;;2.08;;
53899;SDS011;40509;32.858;-116.858;2023-04-03T04:23:09;7.57;;;2.55;;
53899;SDS011;40509;32.858;-116.858;2023-04-03T04:25:37;6.15;;;1.85;;
53899;SDS011;40509;32.858;-116.858;2023-04-03T04:28:06;4.43;;;2.70;;
53899;SDS011;40509;32.858;-116.858;2023-04-03T04:30:33;4.18;;;2.63;;
53899;SDS011;40509;32.858;-116.858;2023-04-03T04:33:01;8.27;;;3.28;;
53899;SDS011;40509;32.858;-116.858;2023-04-03T04:35:29;6.28;;;1.98;;
53899;SDS011;40509;32.858;-116.858;2023-04-03T04:37:57;4.82;;;2.90;;
53899;SDS011;40509;32.858;-116.858;2023-04-03T04:40:25;6.47;;;3.67;;
53899;SDS011;40509;32.858;-116.858;2023-04-03T04:42:52;4.28;;;3.17;;
53899;SDS011;40509;32.858;-116.858;2023-04-03T04:45:20;5.80;;;2.80;;
53899;SDS011;40509;32.858;-116.858;2023-04-03T04:47:47;5.72;;;1.77;;
53899;SDS011;40509;32.858;-116.858;2023-04-03T04:50:18;4.35;;;2.38;;
53899;SDS011;40509;32.858;-116.858;2023-04-03T04:52:46;6.20;;;2.42;;
53899;SDS011;40509;32.858;-116.858;2023-04-03T04:55:13;5.13;;;1.83;;
53899;SDS011;40509;32.858;-116.858;2023-04-03T04:57:41;10.95;;;2.55;;
53899;SDS011;40509;32.858;-116.858;2023-04-03T05:00:08;2.88;;;2.33;;
53899;SDS011;40509;32.858;-116.858;2023-04-03T05:02:36;4.72;;;2.40;;
53899;SDS011;40509;32.858;-116.858;2023-04-03T05:05:04;6.75;;;2.00;;
53899;SDS011;40509;32.858;-116.858;2023-04-03T05:07:32;8.05;;;3.15;;
53899;SDS011;40509;32.858;-116.858;2023-04-03T05:10:01;6.03;;;2.80;;
53899;SDS011;40509;32.858;-116.858;2023-04-03T05:12:31;3.90;;;2.42;;
53899;SDS011;40509;32.858;-116.858;2023-04-03T05:15:01;5.95;;;2.65;;
53899;SDS011;40509;32.858;-116.858;2023-04-03T05:17:30;7.10;;;3.20;;
53899;SDS011;40509;32.858;-116.858;2023-04-03T05:19:58;5.78;;;2.28;;
53899;SDS011;40509;32.858;-116.858;2023-04-03T05:22:26;6.70;;;2.00;;
53899;SDS011;40509;32.858;-116.858;2023-04-03T05:24:58;8.98;;;3.50;;
53899;SDS011;40509;32.858;-116.858;2023-04-03T05:27:26;4.95;;;2.45;;
53899;SDS011;40509;32.858;-116.858;2023-04-03T05:29:56;3.85;;;2.20;;
53899;SDS011;40509;32.858;-116.858;2023-04-03T05:32:25;6.13;;;2.30;;
53899;SDS011;40509;32.858;-116.858;2023-04-03T05:35:13;6.20;;;3.00;;
53899;SDS011;40509;32.858;-116.858;2023-04-03T05:37:42;3.38;;;2.08;;
53899;SDS011;40509;32.858;-116.858;2023-04-03T05:40:10;4.45;;;1.67;;
53899;SDS011;40509;32.858;-116.858;2023-04-03T05:42:41;3.17;;;2.13;;
53899;SDS011;40509;32.858;-116.858;2023-04-03T05:45:09;2.53;;;2.10;;
53899;SDS011;40509;32.858;-116.858;2023-04-03T05:47:36;4.88;;;2.15;;
53899;SDS011;40509;32.858;-116.858;2023-04-03T05:50:05;4.25;;;2.05;;
53899;SDS011;40509;32.858;-116.858;2023-04-03T05:52:35;2.33;;;2.05;;
53899;SDS011;40509;32.858;-116.858;2023-04-03T05:55:05;5.73;;;2.30;;
53899;SDS011;40509;32.858;-116.858;2023-04-03T05:57:34;3.67;;;2.28;;
53899;SDS011;40509;32.858;-116.858;2023-04-03T06:00:04;2.25;;;1.70;;
53899;SDS011;40509;32.858;-116.858;2023-04-03T06:02:40;6.85;;;2.28;;
53899;SDS011;40509;32.858;-116.858;2023-04-03T06:05:12;6.07;;;2.42;;
53899;SDS011;40509;32.858;-116.858;2023-04-03T06:07:41;6.00;;;1.98;;
53899;SDS011;40509;32.858;-116.858;2023-04-03T06:10:11;3.90;;;2.47;;
53899;SDS011;40509;32.858;-116.858;2023-04-03T06:12:39;3.33;;;2.15;;
53899;SDS011;40509;32.858;-116.858;2023-04-03T06:15:07;5.38;;;2.30;;
53899;SDS011;40509;32.858;-116.858;2023-04-03T06:17:36;1.60;;;1.50;;
53899;SDS011;40509;32.858;-116.858;2023-04-03T06:20:04;4.07;;;2.50;;
53899;SDS011;40509;32.858;-116.858;2023-04-03T06:22:33;4.60;;;2.00;;
53899;SDS011;40509;32.858;-116.858;2023-04-03T06:25:01;4.65;;;2.30;;
53899;SDS011;40509;32.858;-116.858;2023-04-03T06:27:29;3.88;;;2.22;;
53899;SDS011;40509;32.858;-116.858;2023-04-03T06:29:56;1.90;;;1.50;;
53899;SDS011;40509;32.858;-116.858;2023-04-03T06:32:23;3.45;;;1.88;;
53899;SDS011;40509;32.858;-116.858;2023-04-03T06:34:51;6.88;;;2.08;;
53899;SDS011;40509;32.858;-116.858;2023-04-03T06:37:20;4.20;;;2.08;;
53899;SDS011;40509;32.858;-116.858;2023-04-03T06:39:48;2.45;;;2.25;;
53899;SDS011;40509;32.858;-116.858;2023-04-03T06:42:16;6.07;;;2.35;;
53899;SDS011;40509;32.858;-116.858;2023-04-03T06:44:52;3.17;;;2.40;;
53899;SDS011;40509;32.858;-116.858;2023-04-03T06:47:19;2.60;;;1.75;;
53899;SDS011;40509;32.858;-116.858;2023-04-03T06:49:46;7.03;;;3.10;;
53899;SDS011;40509;32.858;-116.858;2023-04-03T06:52:13;4.00;;;1.98;;
53899;SDS011;40509;32.858;-116.858;2023-04-03T06:54:41;4.70;;;2.35;;
53899;SDS011;40509;32.858;-116.858;2023-04-03T06:57:08;4.07;;;1.48;;
53899;SDS011;40509;32.858;-116.858;2023-04-03T06:59:35;3.05;;;1.77;;
53899;SDS011;40509;32.858;-116.858;2023-04-03T07:02:02;5.53;;;2.08;;
53899;SDS011;40509;32.858;-116.858;2023-04-03T07:04:30;2.67;;;1.58;;
53899;SDS011;40509;32.858;-116.858;2023-04-03T07:06:57;2.53;;;1.80;;
53899;SDS011;40509;32.858;-116.858;2023-04-03T07:09:24;2.85;;;2.17;;
53899;SDS011;40509;32.858;-116.858;2023-04-03T07:11:52;3.17;;;2.63;;
53899;SDS011;40509;32.858;-116.858;2023-04-03T07:14:20;2.58;;;1.90;;
53899;SDS011;40509;32.858;-116.858;2023-04-03T07:16:47;2.63;;;1.15;;
53899;SDS011;40509;32.858;-116.858;2023-04-03T07:19:14;5.80;;;2.45;;
53899;SDS011;40509;32.858;-116.858;2023-04-03T07:21:42;2.55;;;1.65;;
53899;SDS011;40509;32.858;-116.858;2023-04-03T07:24:09;3.15;;;1.75;;
53899;SDS011;40509;32.858;-116.858;2023-04-03T07:26:37;3.92;;;1.73;;
53899;SDS011;40509;32.858;-116.858;2023-04-03T07:29:04;7.63;;;2.28;;
53899;SDS011;40509;32.858;-116.858;2023-04-03T07:31:31;4.05;;;1.80;;
53899;SDS011;40509;32.858;-116.858;2023-04-03T07:34:00;5.30;;;2.22;;
53899;SDS011;40509;32.858;-116.858;2023-04-03T07:36:27;3.55;;;1.83;;
53899;SDS011;40509;32.858;-116.858;2023-04-03T07:38:55;4.63;;;1.20;;
53899;SDS011;40509;32.858;-116.858;2023-04-03T07:41:23;2.88;;;1.35;;
53899;SDS011;40509;32.858;-116.858;2023-04-03T07:43:50;3.65;;;2.05;;
53899;SDS011;40509;32.858;-116.858;2023-04-03T07:46:18;2.20;;;2.00;;
53899;SDS011;40509;32.858;-116.858;2023-04-03T07:48:46;5.03;;;2.05;;
53899;SDS011;40509;32.858;-116.858;2023-04-03T07:51:13;10.57;;;2.40;;
53899;SDS011;40509;32.858;-116.858;2023-04-03T07:53:41;2.95;;;2.03;;
53899;SDS011;40509;32.858;-116.858;2023-04-03T07:56:09;2.92;;;1.92;;
53899;SDS011;40509;32.858;-116.858;2023-04-03T07:58:37;1.88;;;1.70;;
53899;SDS011;40509;32.858;-116.858;2023-04-03T08:01:04;4.22;;;2.00;;
53899;SDS011;40509;32.858;-116.858;2023-04-03T08:03:32;1.90;;;1.75;;
53899;SDS011;40509;32.858;-116.858;2023-04-03T08:06:03;3.83;;;2.03;;
53899;SDS011;40509;32.858;-116.858;2023-04-03T08:10:59;5.03;;;2.53;;
53899;SDS011;40509;32.858;-116.858;2023-04-03T08:13:28;4.68;;;1.65;;
53899;SDS011;40509;32.858;-116.858;2023-04-03T08:15:56;1.77;;;1.52;;
53899;SDS011;40509;32.858;-116.858;2023-04-03T08:18:25;1.63;;;1.52;;
53899;SDS011;40509;32.858;-116.858;2023-04-03T08:20:53;1.70;;;1.55;;
53899;SDS011;40509;32.858;-116.858;2023-04-03T08:23:20;4.03;;;1.88;;
53899;SDS011;40509;32.858;-116.858;2023-04-03T08:25:47;2.40;;;2.20;;
53899;SDS011;40509;32.858;-116.858;2023-04-03T08:28:14;3.63;;;2.10;;
53899;SDS011;40509;32.858;-116.858;2023-04-03T08:30:41;1.77;;;1.33;;
53899;SDS011;40509;32.858;-116.858;2023-04-03T08:33:09;1.42;;;1.33;;
53899;SDS011;40509;32.858;-116.858;2023-04-03T08:35:40;5.38;;;2.35;;
53899;SDS011;40509;32.858;-116.858;2023-04-03T08:38:07;2.80;;;1.42;;
53899;SDS011;40509;32.858;-116.858;2023-04-03T08:40:37;3.17;;;2.10;;
53899;SDS011;40509;32.858;-116.858;2023-04-03T08:43:34;3.30;;;1.83;;
53899;SDS011;40509;32.858;-116.858;2023-04-03T08:46:24;1.52;;;1.40;;
53899;SDS011;40509;32.858;-116.858;2023-04-03T08:49:17;2.60;;;1.83;;
53899;SDS011;40509;32.858;-116.858;2023-04-03T08:51:57;2.85;;;1.63;;
53899;SDS011;40509;32.858;-116.858;2023-04-03T08:54:28;3.08;;;1.60;;
53899;SDS011;40509;32.858;-116.858;2023-04-03T08:56:59;3.38;;;2.33;;
53899;SDS011;40509;32.858;-116.858;2023-04-03T08:59:35;6.13;;;2.38;;
53899;SDS011;40509;32.858;-116.858;2023-04-03T09:02:12;2.55;;;2.15;;
53899;SDS011;40509;32.858;-116.858;2023-04-03T09:04:49;1.48;;;1.38;;
53899;SDS011;40509;32.858;-116.858;2023-04-03T09:07:20;1.92;;;1.48;;
53899;SDS011;40509;32.858;-116.858;2023-04-03T09:09:58;1.90;;;1.40;;
53899;SDS011;40509;32.858;-116.858;2023-04-03T09:12:33;3.13;;;1.33;;
53899;SDS011;40509;32.858;-116.858;2023-04-03T09:15:21;3.40;;;2.05;;
53899;SDS011;40509;32.858;-116.858;2023-04-03T09:17:53;1.30;;;1.20;;
53899;SDS011;40509;32.858;-116.858;2023-04-03T09:25:49;2.78;;;1.33;;
53899;SDS011;40509;32.858;-116.858;2023-04-03T09:28:20;2.08;;;1.85;;
53899;SDS011;40509;32.858;-116.858;2023-04-03T09:30:47;3.22;;;2.00;;
53899;SDS011;40509;32.858;-116.858;2023-04-03T09:33:15;1.65;;;1.55;;
53899;SDS011;40509;32.858;-116.858;2023-04-03T09:35:43;2.05;;;1.58;;
53899;SDS011;40509;32.858;-116.858;2023-04-03T09:43:22;2.25;;;1.50;;
53899;SDS011;40509;32.858;-116.858;2023-04-03T09:46:15;1.38;;;1.23;;
53899;SDS011;40509;32.858;-116.858;2023-04-03T09:48:57;1.67;;;1.58;;
53899;SDS011;40509;32.858;-116.858;2023-04-03T09:51:28;1.87;;;1.50;;
53899;SDS011;40509;32.858;-116.858;2023-04-03T09:53:57;1.55;;;1.30;;
53899;SDS011;40509;32.858;-116.858;2023-04-03T09:56:26;3.30;;;1.85;;
53899;SDS011;40509;32.858;-116.858;2023-04-03T10:01:28;3.45;;;1.98;;
53899;SDS011;40509;32.858;-116.858;2023-04-03T10:04:30;2.88;;;1.40;;
53899;SDS011;40509;32.858;-116.858;2023-04-03T10:06:51;3.33;;;1.58;;
53899;SDS011;40509;32.858;-116.858;2023-04-03T10:14:31;2.40;;;1.63;;
53899;SDS011;40509;32.858;-116.858;2023-04-03T10:17:18;1.58;;;1.05;;
53899;SDS011;40509;32.858;-116.858;2023-04-03T10:20:05;1.85;;;1.60;;
53899;SDS011;40509;32.858;-116.858;2023-04-03T10:22:40;2.95;;;2.30;;
53899;SDS011;40509;32.858;-116.858;2023-04-03T10:25:13;1.48;;;1.23;;
53899;SDS011;40509;32.858;-116.858;2023-04-03T10:36:10;2.47;;;1.42;;
53899;SDS011;40509;32.858;-116.858;2023-04-03T10:50:19;1.75;;;1.65;;
53899;SDS011;40509;32.858;-116.858;2023-04-03T10:57:59;3.22;;;1.40;;
53899;SDS011;40509;32.858;-116.858;2023-04-03T11:00:35;5.45;;;1.70;;
53899;SDS011;40509;32.858;-116.858;2023-04-03T11:03:11;1.85;;;1.20;;
53899;SDS011;40509;32.858;-116.858;2023-04-03T11:06:05;3.13;;;1.40;;
53899;SDS011;40509;32.858;-116.858;2023-04-03T11:08:42;3.85;;;2.38;;
53899;SDS011;40509;32.858;-116.858;2023-04-03T11:11:30;1.40;;;1.30;;
53899;SDS011;40509;32.858;-116.858;2023-04-03T11:16:46;2.30;;;1.42;;
53899;SDS011;40509;32.858;-116.858;2023-04-03T11:24:39;3.03;;;1.10;;
53899;SDS011;40509;32.858;-116.858;2023-04-03T11:27:13;2.30;;;1.33;;
53899;SDS011;40509;32.858;-116.858;2023-04-03T11:29:45;2.75;;;1.50;;
53899;SDS011;40509;32.858;-116.858;2023-04-03T11:35:29;1.17;;;1.08;;
53899;SDS011;40509;32.858;-116.858;2023-04-03T11:37:58;1.80;;;1.33;;
53899;SDS011;40509;32.858;-116.858;2023-04-03T11:40:29;2.92;;;1.20;;
53899;SDS011;40509;32.858;-116.858;2023-04-03T11:43:06;1.27;;;1.17;;
53899;SDS011;40509;32.858;-116.858;2023-04-03T11:45:50;1.98;;;1.08;;
53899;SDS011;40509;32.858;-116.858;2023-04-03T11:50:58;1.67;;;1.25;;
53899;SDS011;40509;32.858;-116.858;2023-04-03T12:04:17;1.88;;;1.35;;
53899;SDS011;40509;32.858;-116.858;2023-04-03T12:09:33;2.53;;;1.48;;
53899;SDS011;40509;32.858;-116.858;2023-04-03T12:12:23;0.77;;;0.75;;
53899;SDS011;40509;32.858;-116.858;2023-04-03T12:17:50;1.23;;;1.13;;
53899;SDS011;40509;32.858;-116.858;2023-04-03T12:23:33;1.67;;;1.33;;
53899;SDS011;40509;32.858;-116.858;2023-04-03T12:26:18;2.88;;;1.13;;
53899;SDS011;40509;32.858;-116.858;2023-04-03T12:28:51;2.55;;;1.23;;
53899;SDS011;40509;32.858;-116.858;2023-04-03T12:31:20;1.85;;;0.98;;
53899;SDS011;40509;32.858;-116.858;2023-04-03T12:33:57;1.92;;;1.40;;
53899;SDS011;40509;32.858;-116.858;2023-04-03T12:37:02;1.48;;;0.98;;
53899;SDS011;40509;32.858;-116.858;2023-04-03T12:40:10;1.88;;;1.13;;
53899;SDS011;40509;32.858;-116.858;2023-04-03T12:45:56;3.40;;;0.93;;
53899;SDS011;40509;32.858;-116.858;2023-04-03T12:48:30;3.20;;;1.95;;
53899;SDS011;40509;32.858;-116.858;2023-04-03T12:51:00;1.00;;;0.60;;
53899;SDS011;40509;32.858;-116.858;2023-04-03T12:53:31;2.05;;;1.02;;
53899;SDS011;40509;32.858;-116.858;2023-04-03T12:56:20;1.15;;;0.82;;
53899;SDS011;40509;32.858;-116.858;2023-04-03T12:58:53;3.00;;;0.98;;
53899;SDS011;40509;32.858;-116.858;2023-04-03T13:01:24;1.10;;;0.88;;
53899;SDS011;40509;32.858;-116.858;2023-04-03T13:03:53;1.10;;;1.00;;
53899;SDS011;40509;32.858;-116.858;2023-04-03T13:06:23;3.53;;;1.30;;
53899;SDS011;40509;32.858;-116.858;2023-04-03T13:08:54;1.38;;;0.95;;
53899;SDS011;40509;32.858;-116.858;2023-04-03T13:11:24;2.70;;;1.38;;
53899;SDS011;40509;32.858;-116.858;2023-04-03T13:13:54;1.00;;;0.70;;
53899;SDS011;40509;32.858;-116.858;2023-04-03T13:16:33;1.75;;;1.05;;
53899;SDS011;40509;32.858;-116.858;2023-04-03T13:19:00;2.42;;;1.38;;
53899;SDS011;40509;32.858;-116.858;2023-04-03T13:21:28;3.15;;;1.20;;
53899;SDS011;40509;32.858;-116.858;2023-04-03T13:23:59;2.22;;;1.55;;
53899;SDS011;40509;32.858;-116.858;2023-04-03T13:26:30;1.63;;;1.05;;
53899;SDS011;40509;32.858;-116.858;2023-04-03T13:29:01;1.27;;;1.17;;
53899;SDS011;40509;32.858;-116.858;2023-04-03T13:31:35;1.38;;;1.00;;
53899;SDS011;40509;32.858;-116.858;2023-04-03T13:36:59;2.17;;;1.13;;
53899;SDS011;40509;32.858;-116.858;2023-04-03T13:39:31;5.80;;;1.27;;
53899;SDS011;40509;32.858;-116.858;2023-04-03T13:42:01;0.77;;;0.77;;
53899;SDS011;40509;32.858;-116.858;2023-04-03T13:44:42;1.60;;;1.00;;
53899;SDS011;40509;32.858;-116.858;2023-04-03T13:47:20;1.88;;;1.52;;
53899;SDS011;40509;32.858;-116.858;2023-04-03T13:52:48;1.73;;;0.82;;
53899;SDS011;40509;32.858;-116.858;2023-04-03T13:55:31;2.38;;;1.60;;
53899;SDS011;40509;32.858;-116.858;2023-04-03T13:58:20;2.20;;;1.20;;
53899;SDS011;40509;32.858;-116.858;2023-04-03T14:00:54;2.20;;;1.80;;
53899;SDS011;40509;32.858;-116.858;2023-04-03T14:06:21;1.63;;;1.23;;
53899;SDS011;40509;32.858;-116.858;2023-04-03T14:08:49;1.08;;;0.98;;
53899;SDS011;40509;32.858;-116.858;2023-04-03T14:11:19;1.00;;;0.65;;
53899;SDS011;40509;32.858;-116.858;2023-04-03T14:13:53;1.23;;;0.88;;
53899;SDS011;40509;32.858;-116.858;2023-04-03T14:16:26;3.65;;;0.95;;
53899;SDS011;40509;32.858;-116.858;2023-04-03T14:18:56;1.33;;;1.10;;
53899;SDS011;40509;32.858;-116.858;2023-04-03T14:21:24;3.63;;;1.50;;
53899;SDS011;40509;32.858;-116.858;2023-04-03T14:23:52;1.40;;;1.05;;
53899;SDS011;40509;32.858;-116.858;2023-04-03T14:26:21;2.78;;;1.05;;
53899;SDS011;40509;32.858;-116.858;2023-04-03T14:28:51;1.05;;;0.90;;
53899;SDS011;40509;32.858;-116.858;2023-04-03T14:31:20;1.23;;;0.63;;
53899;SDS011;40509;32.858;-116.858;2023-04-03T14:33:48;0.98;;;0.85;;
53899;SDS011;40509;32.858;-116.858;2023-04-03T14:36:21;0.90;;;0.77;;
53899;SDS011;40509;32.858;-116.858;2023-04-03T14:38:51;1.00;;;0.90;;
53899;SDS011;40509;32.858;-116.858;2023-04-03T14:41:20;1.35;;;1.25;;
53899;SDS011;40509;32.858;-116.858;2023-04-03T14:43:50;1.27;;;0.95;;
53899;SDS011;40509;32.858;-116.858;2023-04-03T14:48:45;0.82;;;0.80;;
53899;SDS011;40509;32.858;-116.858;2023-04-03T14:51:13;1.02;;;0.93;;
53899;SDS011;40509;32.858;-116.858;2023-04-03T14:53:42;1.17;;;0.88;;
53899;SDS011;40509;32.858;-116.858;2023-04-03T14:56:29;1.67;;;0.73;;
53899;SDS011;40509;32.858;-116.858;2023-04-03T14:58:59;3.40;;;0.98;;
53899;SDS011;40509;32.858;-116.858;2023-04-03T15:01:27;0.70;;;0.63;;
53899;SDS011;40509;32.858;-116.858;2023-04-03T15:03:56;1.00;;;0.90;;
53899;SDS011;40509;32.858;-116.858;2023-04-03T15:06:24;0.90;;;0.60;;
53899;SDS011;40509;32.858;-116.858;2023-04-03T15:08:52;4.25;;;0.75;;
53899;SDS011;40509;32.858;-116.858;2023-04-03T15:11:19;5.72;;;1.02;;
53899;SDS011;40509;32.858;-116.858;2023-04-03T15:13:47;2.08;;;1.25;;
53899;SDS011;40509;32.858;-116.858;2023-04-03T15:16:15;0.85;;;0.70;;
53899;SDS011;40509;32.858;-116.858;2023-04-03T15:18:45;1.42;;;1.00;;
53899;SDS011;40509;32.858;-116.858;2023-04-03T15:21:13;1.00;;;0.80;;
53899;SDS011;40509;32.858;-116.858;2023-04-03T15:23:41;0.63;;;0.63;;
53899;SDS011;40509;32.858;-116.858;2023-04-03T15:26:08;2.03;;;1.05;;
53899;SDS011;40509;32.858;-116.858;2023-04-03T15:28:37;1.83;;;1.23;;
53899;SDS011;40509;32.858;-116.858;2023-04-03T15:31:06;1.73;;;1.15;;
53899;SDS011;40509;32.858;-116.858;2023-04-03T15:33:35;0.93;;;0.70;;
53899;SDS011;40509;32.858;-116.858;2023-04-03T15:36:03;0.93;;;0.77;;
53899;SDS011;40509;32.858;-116.858;2023-04-03T15:38:31;0.75;;;0.73;;
53899;SDS011;40509;32.858;-116.858;2023-04-03T15:41:01;2.67;;;1.25;;
53899;SDS011;40509;32.858;-116.858;2023-04-03T15:43:29;3.60;;;1.25;;
53899;SDS011;40509;32.858;-116.858;2023-04-03T15:45:57;2.00;;;1.48;;
53899;SDS011;40509;32.858;-116.858;2023-04-03T15:48:26;3.92;;;1.00;;
53899;SDS011;40509;32.858;-116.858;2023-04-03T15:50:55;2.38;;;1.10;;
53899;SDS011;40509;32.858;-116.858;2023-04-03T15:53:23;2.53;;;1.25;;
53899;SDS011;40509;32.858;-116.858;2023-04-03T15:55:50;1.08;;;0.80;;
53899;SDS011;40509;32.858;-116.858;2023-04-03T15:58:17;1.98;;;0.68;;
53899;SDS011;40509;32.858;-116.858;2023-04-03T16:00:45;1.42;;;0.73;;
53899;SDS011;40509;32.858;-116.858;2023-04-03T16:03:15;1.63;;;1.17;;